Time;durP1;ratioP1;P1;durP2;ratioP2;P2;SDS_P1;SDS_P2;PMS_P1;PMS_P2;Temp;Humidity;BMP_temperature;BMP_pressure;BME280_temperature;BME280_humidity;BME280_pressure;Samples;Min_cycle;Max_cycle;Signal;HPM_P1;HPM_P2
2021/05/24 00:00:07;;;;;;;6.47;1.30;;;;;;;11.85;70.56;100692.53;5024616;28;20036;-73
2021/05/24 00:02:33;;;;;;;2.83;1.00;;;;;;;11.87;70.46;100685.22;5044302;28;20086;-72
2021/05/24 00:04:58;;;;;;;2.30;1.23;;;;;;;11.88;70.67;100686.06;5036277;28;20489;-73
2021/05/24 00:07:24;;;;;;;3.78;1.10;;;;;;;11.79;71.13;100679.50;5035354;28;20672;-73
2021/05/24 00:09:49;;;;;;;3.42;0.90;;;;;;;11.81;71.22;100674.88;5049620;28;20496;-73
2021/05/24 00:12:15;;;;;;;3.58;1.00;;;;;;;11.87;71.07;100670.91;5043988;28;20112;-73
2021/05/24 00:14:41;;;;;;;3.08;0.98;;;;;;;11.79;71.78;100668.75;5022564;28;20122;-73
2021/05/24 00:17:06;;;;;;;4.55;1.20;;;;;;;11.92;70.95;100658.84;5049304;28;20115;-73
2021/05/24 00:19:32;;;;;;;7.47;1.02;;;;;;;11.82;72.12;100657.78;5024813;28;20073;-73
2021/05/24 00:21:58;;;;;;;3.95;0.90;;;;;;;11.83;72.31;100651.44;5037863;28;20041;-73
2021/05/24 00:24:23;;;;;;;5.07;1.15;;;;;;;11.77;72.52;100651.00;5026220;28;20033;-73
2021/05/24 00:26:49;;;;;;;5.70;1.02;;;;;;;11.65;73.80;100650.00;5030770;28;20045;-73
2021/05/24 00:29:18;;;;;;;3.17;1.20;;;;;;;11.61;74.05;100649.34;5018711;28;20040;-73
2021/05/24 00:31:44;;;;;;;4.13;1.02;;;;;;;11.53;75.30;100638.28;5027057;28;20060;-73
2021/05/24 00:34:10;;;;;;;4.05;0.85;;;;;;;11.45;75.84;100637.09;5025395;28;20029;-73
2021/05/24 00:36:35;;;;;;;6.07;1.08;;;;;;;11.59;75.42;100634.31;5031831;28;20799;-73
2021/05/24 00:39:01;;;;;;;3.58;1.08;;;;;;;11.50;75.92;100630.44;5044953;28;20480;-73
2021/05/24 00:41:26;;;;;;;4.25;1.00;;;;;;;11.51;75.87;100623.22;5033394;28;20047;-73
2021/05/24 00:43:52;;;;;;;3.13;1.20;;;;;;;11.46;76.43;100628.06;5037449;28;20036;-73
2021/05/24 00:46:19;;;;;;;3.97;1.15;;;;;;;11.52;75.43;100620.44;5041937;28;20135;-73
2021/05/24 00:48:45;;;;;;;1.30;0.90;;;;;;;11.48;76.12;100612.69;5041699;28;20055;-72
2021/05/24 00:51:10;;;;;;;2.00;0.90;;;;;;;11.41;76.17;100608.72;5023500;28;20668;-73
2021/05/24 00:53:36;;;;;;;2.55;0.90;;;;;;;11.45;76.20;100618.28;5045997;28;20021;-73
2021/05/24 00:56:01;;;;;;;4.32;1.08;;;;;;;11.51;75.83;100607.09;5026545;28;20052;-73
2021/05/24 00:58:27;;;;;;;3.58;1.00;;;;;;;11.55;75.48;100596.00;5046498;28;20040;-72
2021/05/24 01:00:52;;;;;;;5.82;0.90;;;;;;;11.57;75.73;100595.91;5048328;28;20104;-72
2021/05/24 01:03:18;;;;;;;4.07;1.25;;;;;;;11.49;76.04;100595.59;5036986;28;20036;-72
2021/05/24 01:05:45;;;;;;;3.92;0.73;;;;;;;11.46;76.76;100583.25;5030583;28;20036;-73
2021/05/24 01:08:13;;;;;;;4.43;0.93;;;;;;;11.43;76.93;100594.19;5017541;28;20139;-73
2021/05/24 01:10:40;;;;;;;5.78;1.25;;;;;;;11.52;77.15;100576.56;5046550;28;20036;-73
2021/05/24 01:13:07;;;;;;;2.42;0.80;;;;;;;11.42;77.55;100581.72;5041060;28;20036;-73
2021/05/24 01:15:34;;;;;;;3.95;0.95;;;;;;;11.50;77.30;100578.50;5048228;28;20044;-72
2021/05/24 01:17:59;;;;;;;3.00;0.85;;;;;;;11.42;78.09;100567.44;5025722;28;20037;-73
2021/05/24 01:20:27;;;;;;;1.65;0.90;;;;;;;11.46;78.09;100577.00;5036289;28;20111;-73
2021/05/24 01:25:28;;;;;;;3.17;1.00;;;;;;;11.53;78.45;100567.53;5025615;28;20029;-72
2021/05/24 01:27:54;;;;;;;2.70;0.80;;;;;;;11.55;78.58;100568.28;5042449;28;20505;-73
2021/05/24 01:30:20;;;;;;;4.68;0.75;;;;;;;11.57;78.62;100569.91;5026377;28;20061;-72
2021/05/24 01:32:46;;;;;;;1.83;0.75;;;;;;;11.58;78.56;100560.00;5039622;28;20115;-73
2021/05/24 01:35:12;;;;;;;3.53;0.90;;;;;;;11.60;78.77;100553.53;5043698;28;20485;-72
2021/05/24 01:37:37;;;;;;;9.13;1.33;;;;;;;11.57;79.41;100555.59;5043952;28;20037;-74
2021/05/24 01:40:04;;;;;;;3.75;0.98;;;;;;;11.63;79.60;100557.84;5032236;28;20104;-72
2021/05/24 01:42:30;;;;;;;1.42;0.60;;;;;;;11.72;78.90;100554.50;5037351;28;20044;-72
2021/05/24 01:44:56;;;;;;;2.92;1.08;;;;;;;11.70;79.17;100554.63;5030408;28;20029;-73
2021/05/24 01:47:22;;;;;;;4.40;0.63;;;;;;;11.67;80.20;100548.59;5032557;28;20037;-73
2021/05/24 01:49:47;;;;;;;2.05;0.82;;;;;;;11.74;79.86;100539.16;5032931;28;20382;-73
2021/05/24 01:52:15;;;;;;;2.42;0.90;;;;;;;11.79;79.90;100553.13;5045406;28;20061;-72
2021/05/24 01:54:42;;;;;;;2.08;0.73;;;;;;;11.80;79.51;100541.38;5051743;28;20024;-72
2021/05/24 01:57:08;;;;;;;3.92;0.73;;;;;;;11.81;79.69;100532.34;5035914;28;20029;-72
2021/05/24 01:59:34;;;;;;;1.15;0.60;;;;;;;11.83;80.22;100538.50;5050457;28;20051;-72
2021/05/24 02:02:00;;;;;;;4.00;0.60;;;;;;;11.89;79.92;100532.66;5047029;28;20034;-72
2021/05/24 02:04:26;;;;;;;3.70;1.00;;;;;;;11.96;80.04;100527.72;5034543;28;20026;-72
2021/05/24 02:06:51;;;;;;;3.47;0.70;;;;;;;11.92;80.17;100515.44;5016754;28;20542;-72
2021/05/24 02:09:17;;;;;;;3.30;0.80;;;;;;;11.94;80.37;100513.50;5042896;28;20313;-73
2021/05/24 02:11:42;;;;;;;1.00;0.50;;;;;;;11.95;80.86;100509.84;5044527;28;20013;-73
2021/05/24 02:14:09;;;;;;;2.33;0.75;;;;;;;12.00;80.87;100508.53;5025529;28;20556;-72
2021/05/24 02:16:42;;;;;;;6.13;0.60;;;;;;;12.01;80.93;100515.63;5045404;28;20033;-72
2021/05/24 02:19:08;;;;;;;;;;;;;;;12.01;81.17;100512.94;5014262;28;20393;-72
2021/05/24 02:21:34;;;;;;;2.17;0.80;;;;;;;12.11;80.69;100524.72;5035718;28;20265;-72
2021/05/24 02:23:59;;;;;;;4.38;0.93;;;;;;;12.03;80.91;100524.47;5020783;28;20083;-72
2021/05/24 02:26:25;;;;;;;2.22;0.70;;;;;;;12.04;80.87;100520.78;5043761;28;20041;-73
2021/05/24 02:28:51;;;;;;;2.05;0.70;;;;;;;12.10;80.97;100523.00;5026808;28;20029;-73
2021/05/24 02:31:16;;;;;;;1.67;0.93;;;;;;;12.07;81.06;100517.00;5045988;28;20052;-72
2021/05/24 02:33:42;;;;;;;3.03;0.60;;;;;;;12.09;81.65;100518.63;5045011;28;20025;-72
2021/05/24 02:36:07;;;;;;;2.00;0.80;;;;;;;12.12;81.13;100507.63;5026855;28;20481;-73
2021/05/24 02:38:32;;;;;;;3.42;1.10;;;;;;;12.15;80.94;100507.41;5045750;28;20642;-73
2021/05/24 02:40:58;;;;;;;3.25;0.80;;;;;;;12.11;81.45;100503.22;5030911;28;20041;-72
2021/05/24 02:43:23;;;;;;;2.75;0.70;;;;;;;12.03;81.76;100496.69;5046391;28;20479;-72
2021/05/24 02:45:49;;;;;;;4.28;0.55;;;;;;;12.13;81.45;100487.81;5043578;28;20022;-72
2021/05/24 02:48:15;;;;;;;3.85;0.68;;;;;;;12.16;80.91;100492.97;5041181;28;20033;-73
2021/05/24 02:50:41;;;;;;;2.63;0.75;;;;;;;12.20;81.11;100481.97;5046182;28;20480;-73
2021/05/24 02:53:06;;;;;;;4.35;0.60;;;;;;;12.16;81.09;100482.19;5043198;28;20044;-73
2021/05/24 02:55:32;;;;;;;3.65;0.65;;;;;;;12.20;80.75;100481.97;5046215;28;20033;-73
2021/05/24 02:57:57;;;;;;;4.55;0.90;;;;;;;12.14;80.95;100478.78;5035807;28;20041;-73
2021/05/24 03:00:27;;;;;;;1.77;0.98;;;;;;;12.09;81.37;100475.59;5041682;28;20029;-73
2021/05/24 03:02:53;;;;;;;1.63;0.55;;;;;;;12.25;80.92;100477.97;5023835;28;20036;-72
2021/05/24 03:05:20;;;;;;;5.50;1.38;;;;;;;12.21;81.05;100479.19;5036933;28;20459;-72
2021/05/24 03:07:47;;;;;;;2.80;0.52;;;;;;;12.16;81.21;100482.19;5039535;28;20772;-73
2021/05/24 03:10:14;;;;;;;2.53;0.70;;;;;;;12.21;80.98;100484.56;5032949;28;20219;-73
2021/05/24 03:12:40;;;;;;;2.08;0.63;;;;;;;12.27;80.27;100480.56;5046918;28;20370;-73
2021/05/24 03:15:06;;;;;;;3.10;0.57;;;;;;;12.23;80.31;100465.59;5048399;28;20657;-73
2021/05/24 03:17:32;;;;;;;6.50;0.70;;;;;;;12.28;79.83;100466.13;5042499;28;20103;-73
2021/05/24 03:19:57;;;;;;;5.70;0.98;;;;;;;12.26;80.12;100462.69;5047915;28;20067;-73
2021/05/24 03:22:23;;;;;;;2.75;0.60;;;;;;;12.31;79.56;100469.44;5049741;28;20086;-73
2021/05/24 03:24:48;;;;;;;4.57;0.75;;;;;;;12.20;80.19;100460.47;5018165;28;20086;-73
2021/05/24 03:27:13;;;;;;;2.30;0.60;;;;;;;12.34;79.68;100473.75;5022444;28;20036;-73
2021/05/24 03:29:39;;;;;;;1.67;0.70;;;;;;;12.34;79.46;100469.22;5022171;28;20120;-73
2021/05/24 03:32:05;;;;;;;4.43;1.23;;;;;;;12.33;79.73;100461.25;5032379;28;20175;-73
2021/05/24 03:34:30;;;;;;;2.60;0.50;;;;;;;12.38;79.15;100464.44;5033101;28;20037;-73
2021/05/24 03:36:56;;;;;;;2.40;0.70;;;;;;;12.31;79.60;100464.06;5040181;28;20433;-73
2021/05/24 03:39:21;;;;;;;3.17;0.93;;;;;;;12.32;79.39;100465.78;5036456;28;20037;-72
2021/05/24 03:41:47;;;;;;;1.88;0.50;;;;;;;12.41;79.19;100459.69;5039469;28;20033;-73
2021/05/24 03:44:12;;;;;;;2.20;0.70;;;;;;;12.49;78.76;100459.09;5038032;28;20086;-73
2021/05/24 03:46:38;;;;;;;6.05;0.80;;;;;;;12.39;78.96;100461.66;5037931;28;20465;-72
2021/05/24 03:49:04;;;;;;;2.35;0.52;;;;;;;12.43;78.78;100456.88;5043610;28;20044;-73
2021/05/24 03:51:31;;;;;;;3.20;0.85;;;;;;;12.44;78.89;100464.84;5040904;28;20059;-73
2021/05/24 03:53:57;;;;;;;2.83;0.68;;;;;;;12.43;78.55;100463.13;5031211;28;20033;-72
2021/05/24 03:56:22;;;;;;;6.30;0.93;;;;;;;12.48;78.79;100452.00;5027264;28;20139;-73
2021/05/24 03:58:48;;;;;;;2.60;0.82;;;;;;;12.61;77.43;100457.31;5028318;28;20036;-72
2021/05/24 04:01:13;;;;;;;4.53;0.70;;;;;;;12.61;77.34;100455.47;5032111;28;20049;-73
2021/05/24 04:03:39;;;;;;;2.58;0.70;;;;;;;12.58;77.86;100455.72;5045116;28;20068;-73
2021/05/24 04:06:06;;;;;;;1.98;0.90;;;;;;;12.64;76.91;100460.63;5043743;28;20029;-72
2021/05/24 04:08:37;;;;;;;4.22;0.40;;;;;;;12.69;76.54;100447.66;5043845;28;20044;-73
2021/05/24 04:11:04;;;;;;;2.00;0.50;;;;;;;12.69;76.82;100444.13;5040777;28;20481;-73
2021/05/24 04:13:30;;;;;;;5.50;0.70;;;;;;;12.76;76.35;100446.22;5042991;28;20068;-72
2021/05/24 04:15:57;;;;;;;4.05;1.10;;;;;;;12.74;76.38;100445.47;5044709;28;20083;-73
2021/05/24 04:18:24;;;;;;;5.68;1.17;;;;;;;12.75;76.00;100441.81;5027276;28;20033;-73
2021/05/24 04:20:50;;;;;;;2.10;0.80;;;;;;;12.74;76.45;100444.59;5025483;28;20029;-73
2021/05/24 04:23:16;;;;;;;5.72;1.00;;;;;;;12.78;75.71;100446.06;5024982;28;20030;-72
2021/05/24 04:25:42;;;;;;;2.42;0.60;;;;;;;12.68;75.90;100435.19;5031176;28;20023;-73
2021/05/24 04:28:08;;;;;;;3.78;1.00;;;;;;;12.70;76.06;100432.38;5034558;28;20051;-73
2021/05/24 04:30:33;;;;;;;2.83;0.70;;;;;;;12.70;76.20;100433.22;5029245;28;20037;-73
2021/05/24 04:32:59;;;;;;;2.53;0.55;;;;;;;12.69;76.11;100436.91;5025081;28;20079;-73
2021/05/24 04:35:25;;;;;;;3.70;0.70;;;;;;;12.71;76.27;100445.72;5024913;28;20041;-73
2021/05/24 04:37:50;;;;;;;4.47;0.90;;;;;;;12.76;75.45;100437.28;5025789;28;20055;-72
2021/05/24 04:40:16;;;;;;;1.40;0.80;;;;;;;12.70;75.83;100437.75;5029352;28;20037;-73
2021/05/24 04:42:41;;;;;;;5.25;0.90;;;;;;;12.73;75.71;100432.97;5023412;28;20024;-73
2021/05/24 04:45:07;;;;;;;3.33;0.63;;;;;;;12.74;75.56;100423.94;5049456;28;20101;-72
2021/05/24 04:47:33;;;;;;;4.47;1.00;;;;;;;12.67;75.69;100429.91;5042118;28;20033;-73
2021/05/24 04:49:58;;;;;;;3.72;1.00;;;;;;;12.62;75.85;100429.41;5043556;28;20036;-73
2021/05/24 04:52:24;;;;;;;2.13;0.70;;;;;;;12.61;75.84;100428.53;5034125;28;20029;-74
2021/05/24 04:54:50;;;;;;;5.00;1.08;;;;;;;12.71;75.14;100424.19;5041807;28;20412;-73
2021/05/24 04:57:15;;;;;;;2.97;0.43;;;;;;;12.67;75.32;100425.38;5049367;28;20129;-73
2021/05/24 04:59:41;;;;;;;2.08;0.90;;;;;;;12.67;75.53;100428.06;5044035;28;20025;-73
2021/05/24 05:02:07;;;;;;;2.88;0.82;;;;;;;12.73;75.69;100419.50;5039632;28;20037;-73
2021/05/24 05:04:32;;;;;;;5.53;0.90;;;;;;;12.80;74.47;100427.97;5035073;28;20037;-73
2021/05/24 05:06:58;;;;;;;4.93;0.93;;;;;;;12.80;74.77;100428.84;5042906;28;20037;-73
2021/05/24 05:09:27;;;;;;;3.78;0.70;;;;;;;12.82;74.76;100421.50;5049747;28;20043;-73
2021/05/24 05:11:54;;;;;;;1.80;0.57;;;;;;;12.88;74.03;100434.50;5045915;28;20377;-74
2021/05/24 05:14:20;;;;;;;3.00;0.90;;;;;;;13.05;72.93;100426.91;5028402;28;20078;-73
2021/05/24 05:16:46;;;;;;;3.42;0.68;;;;;;;13.06;73.12;100428.63;5042889;28;20037;-72
2021/05/24 05:19:12;;;;;;;3.10;0.80;;;;;;;13.12;73.09;100418.25;5037537;28;20028;-73
2021/05/24 05:21:37;;;;;;;3.55;0.70;;;;;;;13.10;72.71;100411.22;5045170;28;20179;-73
2021/05/24 05:24:03;;;;;;;2.42;0.93;;;;;;;13.12;72.95;100417.34;5030382;28;20069;-73
2021/05/24 05:26:28;;;;;;;7.35;0.98;;;;;;;13.12;73.07;100414.66;5041845;28;20033;-72
2021/05/24 05:28:54;;;;;;;3.90;0.90;;;;;;;13.21;72.14;100411.25;5039174;28;20118;-73
2021/05/24 05:31:19;;;;;;;3.13;0.70;;;;;;;13.28;71.79;100407.09;5047722;28;20028;-73
2021/05/24 05:33:44;;;;;;;2.42;0.75;;;;;;;13.57;70.87;100418.22;5031285;28;20083;-73
2021/05/24 05:36:10;;;;;;;3.17;0.63;;;;;;;13.75;70.06;100416.72;5044191;28;20534;-73
2021/05/24 05:38:35;;;;;;;3.08;0.90;;;;;;;13.86;69.23;100405.91;5043835;28;20439;-73
2021/05/24 05:41:02;;;;;;;0.98;0.60;;;;;;;13.85;69.08;100411.41;5034666;28;20540;-73
2021/05/24 05:43:27;;;;;;;5.43;0.68;;;;;;;13.83;69.76;100399.88;5039142;28;20268;-73
2021/05/24 05:45:53;;;;;;;2.92;0.82;;;;;;;13.89;69.76;100397.53;5024188;28;20072;-73
2021/05/24 05:48:18;;;;;;;3.03;0.95;;;;;;;14.24;68.70;100413.50;5048551;28;20041;-73
2021/05/24 05:50:45;;;;;;;4.82;0.70;;;;;;;14.33;66.33;100407.28;5035654;28;20085;-74
2021/05/24 05:53:10;;;;;;;5.18;0.90;;;;;;;14.19;67.25;100399.53;5032470;28;20032;-73
2021/05/24 05:55:36;;;;;;;4.38;0.85;;;;;;;14.27;66.97;100402.41;5037893;28;20063;-73
2021/05/24 05:58:01;;;;;;;4.88;0.80;;;;;;;14.28;66.88;100398.72;5047654;28;20471;-73
2021/05/24 06:00:26;;;;;;;3.03;1.00;;;;;;;14.22;66.99;100403.78;5041393;28;20072;-73
2021/05/24 06:02:52;;;;;;;4.00;0.80;;;;;;;14.22;66.90;100403.78;5052712;28;20485;-72
2021/05/24 06:05:18;;;;;;;3.67;0.65;;;;;;;14.25;66.96;100409.81;5034521;28;20441;-73
2021/05/24 06:07:44;;;;;;;6.97;1.85;;;;;;;14.26;66.89;100411.50;5046617;28;20070;-73
2021/05/24 06:10:11;;;;;;;3.85;0.70;;;;;;;14.29;67.67;100400.44;5040785;28;20109;-73
2021/05/24 06:12:37;;;;;;;1.90;0.60;;;;;;;14.42;66.69;100395.75;5042481;28;20082;-73
2021/05/24 06:15:04;;;;;;;8.73;0.73;;;;;;;14.65;65.52;100392.91;5041926;28;20057;-73
2021/05/24 06:17:30;;;;;;;3.35;0.63;;;;;;;14.81;64.55;100390.63;5044015;28;20040;-73
2021/05/24 06:19:55;;;;;;;8.93;0.60;;;;;;;15.51;61.80;100389.75;5033395;28;20013;-73
2021/05/24 06:22:21;;;;;;;3.63;0.80;;;;;;;16.06;59.31;100386.47;5038488;28;20042;-73
2021/05/24 06:24:46;;;;;;;1.80;0.68;;;;;;;16.29;58.69;100391.63;5039477;28;20068;-74
2021/05/24 06:27:12;;;;;;;2.13;0.65;;;;;;;16.54;57.40;100385.63;5026954;28;20108;-74
2021/05/24 06:29:37;;;;;;;2.15;0.70;;;;;;;16.63;57.32;100379.34;5045058;28;20025;-73
2021/05/24 06:32:03;;;;;;;3.55;0.70;;;;;;;16.69;57.70;100384.19;5021433;28;20040;-73
2021/05/24 06:34:28;;;;;;;2.10;0.60;;;;;;;16.43;56.94;100380.31;5043625;28;20029;-73
2021/05/24 06:36:54;;;;;;;3.22;0.55;;;;;;;16.68;56.00;100382.47;5039656;28;20445;-73
2021/05/24 06:39:21;;;;;;;4.00;0.77;;;;;;;16.96;56.70;100370.69;5029345;28;20037;-71
2021/05/24 06:41:47;;;;;;;2.88;0.70;;;;;;;16.87;56.47;100371.56;5006152;28;20513;-71
2021/05/24 06:44:13;;;;;;;5.30;1.20;;;;;;;16.97;55.33;100360.72;5032688;28;20642;-70
2021/05/24 06:46:38;;;;;;;5.20;0.80;;;;;;;17.27;55.04;100367.72;5029579;28;20036;-72
2021/05/24 06:49:04;;;;;;;1.88;0.90;;;;;;;17.71;53.07;100366.91;5040088;28;20036;-71
2021/05/24 06:51:29;;;;;;;3.55;0.90;;;;;;;18.03;52.95;100376.41;5041616;28;20037;-71
2021/05/24 06:53:55;;;;;;;1.48;0.57;;;;;;;18.49;51.53;100372.59;5043129;28;20401;-72
2021/05/24 06:56:21;;;;;;;1.80;0.77;;;;;;;18.85;51.20;100368.78;5046657;28;20028;-71
2021/05/24 06:58:47;;;;;;;5.03;1.30;;;;;;;18.60;50.34;100377.78;5033452;28;20083;-72
2021/05/24 07:01:12;;;;;;;2.17;0.77;;;;;;;18.68;50.63;100377.00;5030074;28;20041;-71
2021/05/24 07:03:38;;;;;;;3.90;0.70;;;;;;;18.64;49.51;100376.44;5043956;28;20043;-71
2021/05/24 07:06:04;;;;;;;1.90;0.45;;;;;;;18.74;49.35;100373.66;5037617;28;20038;-70
2021/05/24 07:08:29;;;;;;;2.95;0.80;;;;;;;18.88;50.09;100373.06;5037266;28;20040;-71
2021/05/24 07:10:55;;;;;;;4.32;0.80;;;;;;;18.51;50.46;100366.00;5026923;28;20041;-72
2021/05/24 07:13:20;;;;;;;3.22;0.70;;;;;;;18.08;51.15;100357.81;5044005;28;20584;-71
2021/05/24 07:15:46;;;;;;;4.82;1.00;;;;;;;18.03;51.52;100360.09;5037967;28;20264;-72
2021/05/24 07:18:11;;;;;;;2.13;0.50;;;;;;;18.10;52.05;100366.63;5048661;28;20025;-72
2021/05/24 07:20:37;;;;;;;3.67;0.82;;;;;;;17.77;52.13;100360.84;5031176;28;20477;-72
2021/05/24 07:23:03;;;;;;;4.07;1.23;;;;;;;17.72;52.73;100352.31;5024318;28;20039;-72
2021/05/24 07:25:28;;;;;;;2.25;0.70;;;;;;;17.55;53.53;100345.00;5032739;28;20044;-71
2021/05/24 07:27:54;;;;;;;1.83;0.70;;;;;;;17.44;54.09;100349.78;5020877;28;20025;-72
2021/05/24 07:30:19;;;;;;;2.38;1.23;;;;;;;17.30;55.37;100345.69;5026748;28;20056;-72
2021/05/24 07:32:45;;;;;;;4.45;0.77;;;;;;;17.40;54.73;100341.91;5044708;28;20413;-72
2021/05/24 07:35:12;;;;;;;1.90;0.70;;;;;;;17.54;55.80;100340.56;5036035;28;20037;-71
2021/05/24 07:37:37;;;;;;;2.17;0.50;;;;;;;17.48;55.37;100351.16;5025240;28;20813;-72
2021/05/24 07:40:04;;;;;;;2.13;0.80;;;;;;;17.27;55.39;100338.75;5037482;28;20167;-71
2021/05/24 07:42:30;;;;;;;3.35;0.80;;;;;;;17.24;56.87;100344.44;5026079;28;20174;-72
2021/05/24 07:44:55;;;;;;;1.30;0.55;;;;;;;17.20;56.32;100345.75;5035462;28;20144;-74
2021/05/24 07:47:21;;;;;;;7.45;1.02;;;;;;;17.21;55.68;100343.91;5040021;28;20033;-74
2021/05/24 07:49:47;;;;;;;4.75;1.15;;;;;;;17.12;56.92;100331.22;5028358;28;20029;-71
2021/05/24 07:52:13;;;;;;;1.67;0.57;;;;;;;17.18;58.72;100336.06;5044052;28;20045;-71
2021/05/24 07:54:38;;;;;;;3.50;0.98;;;;;;;17.16;57.27;100338.06;5024711;28;20071;-71
2021/05/24 07:57:04;;;;;;;4.20;0.75;;;;;;;17.23;58.51;100337.31;5034899;28;20421;-71
2021/05/24 07:59:30;;;;;;;5.40;0.75;;;;;;;17.24;58.00;100340.88;5046710;28;20036;-71
2021/05/24 08:01:55;;;;;;;1.08;0.65;;;;;;;17.17;57.10;100334.34;5030303;28;20041;-71
2021/05/24 08:04:21;;;;;;;1.75;0.60;;;;;;;17.12;56.18;100334.81;5044121;28;20052;-72
2021/05/24 08:06:47;;;;;;;2.50;0.90;;;;;;;17.09;56.48;100336.97;5038256;28;20040;-73
2021/05/24 08:09:12;;;;;;;4.57;0.70;;;;;;;17.03;57.14;100332.16;5025931;28;20029;-72
2021/05/24 08:11:38;;;;;;;3.10;0.70;;;;;;;17.07;57.36;100330.84;5040896;28;20544;-72
2021/05/24 08:14:03;;;;;;;3.55;0.70;;;;;;;17.04;57.60;100333.81;5043364;28;20489;-71
2021/05/24 08:16:29;;;;;;;3.67;0.80;;;;;;;17.09;58.89;100326.97;5038720;28;20044;-72
2021/05/24 08:18:54;;;;;;;3.28;0.95;;;;;;;17.15;57.65;100331.81;5047491;28;20036;-72
2021/05/24 08:21:20;;;;;;;3.53;1.02;;;;;;;17.17;58.53;100334.34;5050957;28;20044;-71
2021/05/24 08:23:45;;;;;;;4.50;0.60;;;;;;;17.16;59.14;100328.06;5052861;28;20028;-71
2021/05/24 08:26:12;;;;;;;5.22;1.35;;;;;;;17.29;59.00;100327.72;5051792;28;20035;-72
2021/05/24 08:28:38;;;;;;;7.85;0.70;;;;;;;17.30;56.87;100333.00;5037596;28;20021;-71
2021/05/24 08:31:04;;;;;;;2.47;0.80;;;;;;;17.32;57.52;100322.00;5046492;28;20492;-71
2021/05/24 08:33:30;;;;;;;2.88;0.80;;;;;;;17.37;56.80;100335.97;5054364;28;20033;-71
2021/05/24 08:35:57;;;;;;;3.88;0.85;;;;;;;17.30;54.11;100330.28;5048266;28;20035;-72
2021/05/24 08:38:22;;;;;;;3.03;0.95;;;;;;;17.45;53.13;100330.63;5034280;28;20557;-71
2021/05/24 08:40:48;;;;;;;5.45;0.70;;;;;;;17.45;54.12;100333.34;5036627;28;20025;-72
2021/05/24 08:43:16;;;;;;;6.50;0.65;;;;;;;17.42;54.41;100325.50;5046057;28;20538;-72
2021/05/24 08:45:42;;;;;;;4.10;0.90;;;;;;;17.37;53.59;100325.09;5038448;28;20396;-72
2021/05/24 08:48:10;;;;;;;2.28;0.60;;;;;;;17.35;53.02;100322.53;5041875;28;20039;-72
2021/05/24 08:50:36;;;;;;;4.82;1.85;;;;;;;17.34;53.91;100328.13;5037475;28;20056;-72
2021/05/24 08:53:08;;;;;;;6.75;1.10;;;;;;;17.15;52.65;100326.38;5029235;28;20048;-72
2021/05/24 08:55:34;;;;;;;2.28;0.50;;;;;;;17.22;53.78;100334.78;5046020;28;20032;-72
2021/05/24 08:57:59;;;;;;;4.72;0.70;;;;;;;17.20;53.63;100324.06;5044027;28;20029;-72
2021/05/24 09:00:26;;;;;;;3.75;0.40;;;;;;;17.11;53.96;100324.94;5024172;28;20032;-72
2021/05/24 09:02:54;;;;;;;2.70;0.52;;;;;;;17.15;53.51;100325.53;5027501;28;20029;-73
2021/05/24 09:05:21;;;;;;;3.83;0.70;;;;;;;17.13;53.19;100316.66;5043988;28;20468;-73
2021/05/24 09:08:05;;;;;;;3.17;0.50;;;;;;;17.17;54.17;100318.06;5036658;28;20106;-72
2021/05/24 09:10:31;;;;;;;7.03;1.30;;;;;;;17.13;53.48;100305.81;5040394;28;20045;-72
2021/05/24 09:12:56;;;;;;;5.22;1.25;;;;;;;17.17;53.61;100307.22;5017175;28;20033;-73
2021/05/24 09:15:26;;;;;;;3.35;0.68;;;;;;;17.29;54.87;100308.72;5014321;28;20038;-72
2021/05/24 09:17:54;;;;;;;1.45;0.85;;;;;;;17.27;54.65;100308.03;5055594;28;20043;-72
2021/05/24 09:20:19;;;;;;;3.53;0.77;;;;;;;17.23;54.24;100298.47;5038688;28;20440;-73
2021/05/24 09:23:06;;;;;;;3.75;1.08;;;;;;;17.19;55.00;100297.09;5048127;28;20020;-72
2021/05/24 09:25:58;;;;;;;3.20;0.55;;;;;;;17.23;54.62;100296.63;5038577;28;20047;-73
2021/05/24 09:28:32;;;;;;;2.58;0.75;;;;;;;17.33;55.06;100299.28;5022507;28;20141;-73
2021/05/24 09:30:59;;;;;;;2.33;0.75;;;;;;;17.23;54.53;100285.78;5049570;28;20265;-73
2021/05/24 09:33:26;;;;;;;2.22;0.85;;;;;;;17.32;50.80;100292.16;5026436;28;20073;-73
2021/05/24 09:35:52;;;;;;;1.88;0.60;;;;;;;17.30;51.35;100283.31;5042184;28;20261;-72
2021/05/24 09:38:20;;;;;;;3.03;0.70;;;;;;;17.19;52.37;100288.94;5017974;28;20436;-72
2021/05/24 09:40:56;;;;;;;3.75;1.27;;;;;;;17.12;52.66;100287.84;5038889;28;20028;-72
2021/05/24 09:43:34;;;;;;;10.20;1.30;;;;;;;16.96;53.84;100283.94;5019002;28;20191;-73
2021/05/24 09:46:29;;;;;;;1.70;0.77;;;;;;;16.99;53.37;100293.63;5053026;28;20040;-72
2021/05/24 09:49:03;;;;;;;1.50;0.63;;;;;;;16.98;53.77;100287.34;5039442;28;20029;-73
2021/05/24 09:51:34;;;;;;;1.63;0.57;;;;;;;17.02;52.78;100289.75;5048889;28;20030;-72
2021/05/24 09:54:02;;;;;;;3.15;0.75;;;;;;;17.06;53.26;100296.56;5052450;28;20060;-72
2021/05/24 09:56:30;;;;;;;2.58;0.82;;;;;;;17.01;52.98;100291.63;5049068;28;20036;-72
2021/05/24 09:59:08;;;;;;;3.70;0.70;;;;;;;16.96;54.88;100285.78;5036214;28;20029;-72
2021/05/24 10:01:43;;;;;;;2.83;0.82;;;;;;;16.90;57.61;100295.38;5019279;28;20107;-73
2021/05/24 10:04:13;;;;;;;6.70;0.60;;;;;;;16.84;60.53;100292.41;5047971;28;20033;-72
2021/05/24 10:06:39;;;;;;;2.67;0.52;;;;;;;16.77;60.84;100294.88;5021060;28;20085;-72
2021/05/24 10:09:06;;;;;;;3.70;0.73;;;;;;;16.76;62.63;100293.16;5041225;28;20043;-72
2021/05/24 10:11:37;;;;;;;3.83;0.68;;;;;;;16.71;63.21;100290.03;5053903;28;20083;-72
2021/05/24 10:14:03;;;;;;;3.33;0.65;;;;;;;16.67;64.50;100269.63;5046646;28;20036;-73
2021/05/24 10:16:34;;;;;;;2.03;0.60;;;;;;;16.80;63.22;100266.59;5040874;28;20534;-72
2021/05/24 10:19:00;;;;;;;3.85;0.90;;;;;;;16.85;61.21;100259.72;5017349;28;20261;-72
2021/05/24 10:21:26;;;;;;;3.50;0.70;;;;;;;17.02;62.12;100266.22;5051845;28;20584;-73
2021/05/24 10:23:54;;;;;;;2.63;0.80;;;;;;;17.06;62.58;100259.47;5045618;28;20039;-72
2021/05/24 10:26:21;;;;;;;2.53;0.85;;;;;;;16.97;62.60;100253.09;5044906;28;20079;-72
2021/05/24 10:28:48;;;;;;;3.53;0.77;;;;;;;17.05;64.20;100254.19;5048681;28;20208;-72
2021/05/24 10:31:19;;;;;;;4.55;1.00;;;;;;;17.04;64.73;100252.47;5039082;28;20025;-72
2021/05/24 10:33:47;;;;;;;2.80;0.60;;;;;;;17.10;63.96;100254.59;5028800;28;20029;-72
2021/05/24 10:36:31;;;;;;;2.00;0.70;;;;;;;17.12;65.80;100258.88;5043306;28;20034;-72
2021/05/24 10:39:05;;;;;;;2.35;0.80;;;;;;;17.17;67.89;100253.84;5041580;28;20043;-72
2021/05/24 10:41:56;;;;;;;4.70;0.90;;;;;;;17.18;67.17;100260.13;5027329;28;20048;-72
2021/05/24 10:44:42;;;;;;;7.55;0.98;;;;;;;17.14;69.17;100259.56;5029954;28;20036;-72
2021/05/24 10:47:18;;;;;;;3.97;0.70;;;;;;;16.97;68.83;100255.78;5024801;28;20044;-72
2021/05/24 10:50:06;;;;;;;2.15;0.60;;;;;;;16.85;70.48;100265.13;5012148;28;20033;-72
2021/05/24 10:52:38;;;;;;;3.55;0.73;;;;;;;16.80;71.02;100262.03;5042547;28;20025;-72
2021/05/24 10:55:26;;;;;;;8.65;0.75;;;;;;;16.77;73.39;100267.75;5046564;28;20028;-72
2021/05/24 10:58:10;;;;;;;5.20;0.77;;;;;;;16.68;73.35;100262.34;5026105;28;20456;-72
2021/05/24 11:00:58;;;;;;;2.67;0.85;;;;;;;16.63;74.10;100268.22;5023648;28;20029;-71
2021/05/24 11:03:23;;;;;;;2.25;1.25;;;;;;;16.47;75.12;100276.13;5037321;28;20044;-72
2021/05/24 11:06:17;;;;;;;5.88;0.98;;;;;;;16.54;75.37;100282.66;5047573;28;20025;-73
2021/05/24 11:08:50;;;;;;;2.00;0.90;;;;;;;16.50;76.61;100281.22;5026071;28;20029;-73
2021/05/24 11:11:17;;;;;;;3.60;0.70;;;;;;;16.32;75.40;100282.97;5047042;28;20036;-73
2021/05/24 11:14:03;;;;;;;2.78;0.80;;;;;;;16.16;77.35;100289.88;5028257;28;20033;-71
2021/05/24 11:16:32;;;;;;;5.30;0.90;;;;;;;16.18;79.20;100293.25;5044715;28;20040;-72
2021/05/24 11:19:14;;;;;;;4.88;0.68;;;;;;;16.03;80.89;100292.00;5052044;28;20066;-72
2021/05/24 11:21:45;;;;;;;7.82;2.25;;;;;;;15.96;83.46;100290.88;5032905;28;20079;-72
2021/05/24 11:27:11;;;;;;;2.13;0.85;;;;;;;15.97;84.46;100292.59;5046873;28;20065;-72
2021/05/24 11:29:37;;;;;;;1.55;0.70;;;;;;;15.95;85.46;100297.28;5045586;28;20022;-72